Time;durP1;ratioP1;P1;durP2;ratioP2;P2;SDS_P1;SDS_P2;PMS_P1;PMS_P2;Temp;Humidity;BMP_temperature;BMP_pressure;BME280_temperature;BME280_humidity;BME280_pressure;Samples;Min_cycle;Max_cycle;Signal;HPM_P1;HPM_P2
2021/10/22 00:01:01;;;;;;;;;10.50;10.25;;;;;21.98;46.67;101149.47;5078878;28;45993;-71
2021/10/22 00:03:26;;;;;;;;;14.25;13.00;;;;;21.97;46.20;101151.22;5078547;28;55850;-71
2021/10/22 00:05:52;;;;;;;;;13.50;10.00;;;;;21.97;46.72;101155.69;5062140;28;45355;-71
2021/10/22 00:08:17;;;;;;;;;12.50;10.75;;;;;21.97;46.36;101161.84;5078418;28;52596;-71
2021/10/22 00:10:42;;;;;;;;;10.75;8.50;;;;;21.96;46.27;101159.25;5061614;28;49898;-71
2021/10/22 00:13:11;;;;;;;;;12.50;12.50;;;;;21.97;46.54;101167.16;5061816;28;45457;-72
2021/10/22 00:15:36;;;;;;;;;13.25;12.50;;;;;21.96;46.04;101170.75;5062076;28;45211;-71
2021/10/22 00:18:05;;;;;;;;;11.00;10.25;;;;;21.94;45.99;101167.28;5061538;28;49898;-72
2021/10/22 00:20:30;;;;;;;;;11.00;10.00;;;;;21.96;46.19;101165.44;5078740;28;46071;-72
2021/10/22 00:22:56;;;;;;;;;14.50;13.00;;;;;21.91;46.05;101156.75;5075125;28;45360;-72
2021/10/22 00:25:21;;;;;;;;;14.00;11.25;;;;;21.89;46.67;101153.28;5075042;28;51562;-72
2021/10/22 00:27:47;;;;;;;;;12.50;12.00;;;;;21.91;46.11;101169.19;5078556;28;45386;-72
2021/10/22 00:30:12;;;;;;;;;14.75;10.25;;;;;21.91;46.29;101167.38;5078546;28;47985;-72
2021/10/22 00:32:38;;;;;;;;;10.00;9.50;;;;;21.90;46.31;101163.00;5078459;28;45377;-72
2021/10/22 00:35:04;;;;;;;;;10.00;10.00;;;;;21.90;46.39;101165.66;5078570;28;45335;-72
2021/10/22 00:37:29;;;;;;;;;8.25;8.25;;;;;21.88;46.21;101161.28;5095501;27;45362;-71
2021/10/22 00:39:55;;;;;;;;;10.75;9.50;;;;;21.90;46.09;101160.34;5078299;28;45348;-71
2021/10/22 00:42:21;;;;;;;;;11.50;11.50;;;;;21.89;46.26;101161.25;5078416;28;45271;-71
2021/10/22 00:44:48;;;;;;;;;10.50;9.50;;;;;21.90;46.35;101164.78;5078497;28;45257;-71
2021/10/22 00:47:13;;;;;;;;;12.50;10.00;;;;;21.91;46.51;101175.34;5061688;28;45206;-71
2021/10/22 00:49:39;;;;;;;;;12.00;10.00;;;;;21.93;46.59;101175.31;5079616;27;46016;-72
2021/10/22 00:52:05;;;;;;;;;10.25;8.50;;;;;21.93;46.55;101172.66;5079318;27;45227;-72
2021/10/22 00:54:30;;;;;;;;;11.00;9.25;;;;;21.93;46.15;101170.00;5079402;27;45369;-71
2021/10/22 00:56:56;;;;;;;;;13.00;10.00;;;;;21.93;46.32;101175.31;5077630;28;57263;-71
2021/10/22 00:59:21;;;;;;;;;12.25;9.00;;;;;21.92;46.24;101170.91;5079569;28;45404;-72
2021/10/22 01:01:47;;;;;;;;;11.00;10.00;;;;;21.90;46.60;101168.31;5082298;28;51415;-72
2021/10/22 01:04:12;;;;;;;;;10.00;8.50;;;;;21.89;46.26;101171.00;5083049;27;45315;-72
2021/10/22 01:06:38;;;;;;;;;12.00;10.00;;;;;21.89;46.23;101171.00;5082956;28;45432;-69
2021/10/22 01:09:07;;;;;;;;;11.00;8.25;;;;;21.90;46.40;101175.41;5098352;27;45669;-71
2021/10/22 01:11:33;;;;;;;;;11.25;8.75;;;;;21.88;46.51;101177.22;5082935;27;45208;-71
2021/10/22 01:14:00;;;;;;;;;8.25;8.25;;;;;21.87;46.30;101178.16;5098744;27;45438;-70
2021/10/22 01:16:25;;;;;;;;;12.25;9.00;;;;;21.87;46.35;101171.03;5082796;27;45347;-70
2021/10/22 01:18:51;;;;;;;;;10.00;8.75;;;;;21.85;45.99;101172.88;5082608;28;46094;-70
2021/10/22 01:21:16;;;;;;;;;8.75;8.25;;;;;21.84;46.43;101173.81;5081989;28;57958;-70
2021/10/22 01:23:42;;;;;;;;;9.75;8.25;;;;;21.81;46.31;101171.25;5081036;28;49787;-70
2021/10/22 01:26:07;;;;;;;;;10.00;8.25;;;;;21.84;46.07;101181.78;5077713;28;45322;-70
2021/10/22 01:28:32;;;;;;;;;10.50;9.25;;;;;21.83;45.66;101181.81;5057534;28;46009;-70
2021/10/22 01:30:58;;;;;;;;;13.00;11.00;;;;;21.85;46.28;101178.19;5046892;28;64431;-70
2021/10/22 01:33:23;;;;;;;;;9.25;8.25;;;;;21.86;45.69;101181.72;5063903;28;53588;-70
2021/10/22 01:35:49;;;;;;;;;11.00;9.75;;;;;21.83;45.76;101182.69;5094777;27;45513;-70
2021/10/22 01:38:16;;;;;;;;;8.00;7.50;;;;;21.79;45.55;101183.69;5090974;27;46025;-70
2021/10/22 01:40:42;;;;;;;;;9.75;7.00;;;;;21.80;46.02;101187.22;5064298;28;45298;-70
2021/10/22 01:43:08;;;;;;;;;7.50;7.00;;;;;21.79;45.98;101178.38;5081323;28;45263;-70
2021/10/22 01:45:33;;;;;;;;;10.75;10.25;;;;;21.78;45.59;101181.94;5080654;28;55159;-70
2021/10/22 01:47:59;;;;;;;;;8.75;8.75;;;;;21.79;45.82;101183.69;5080837;28;48144;-70
2021/10/22 01:50:24;;;;;;;;;11.00;9.25;;;;;21.79;45.69;101189.00;5081313;28;45260;-70
2021/10/22 01:52:49;;;;;;;;;11.00;8.50;;;;;21.80;45.75;101192.53;5062927;28;62214;-70
2021/10/22 01:55:15;;;;;;;;;8.25;8.00;;;;;21.80;45.54;101195.19;5060503;28;46633;-70
2021/10/22 01:57:40;;;;;;;;;6.75;6.00;;;;;21.76;45.84;101189.09;5052558;28;47739;-70
2021/10/22 02:00:06;;;;;;;;;7.25;7.00;;;;;21.78;45.67;101192.56;5079449;28;45309;-70
2021/10/22 02:02:32;;;;;;;;;11.00;9.00;;;;;21.79;45.98;101190.78;5064221;28;45273;-70
2021/10/22 02:04:58;;;;;;;;;9.75;8.25;;;;;21.79;45.83;101194.31;5063835;28;45379;-70
2021/10/22 02:07:23;;;;;;;;;8.00;7.00;;;;;21.79;46.22;101194.31;5063955;27;47110;-70
2021/10/22 02:09:49;;;;;;;;;10.00;9.00;;;;;21.78;45.73;101195.22;5063384;28;45306;-70
2021/10/22 02:12:14;;;;;;;;;7.00;7.00;;;;;21.78;45.98;101186.41;5080256;28;56922;-70
2021/10/22 02:14:39;;;;;;;;;8.25;7.50;;;;;21.75;45.97;101181.19;5080678;28;45381;-70
2021/10/22 02:17:05;;;;;;;;;9.00;8.25;;;;;21.76;46.21;101182.91;5080694;28;46315;-70
2021/10/22 02:19:30;;;;;;;;;10.50;8.50;;;;;21.74;45.96;101190.94;5063461;28;45417;-70
2021/10/22 02:21:56;;;;;;;;;7.00;5.75;;;;;21.74;46.21;101188.28;5080504;28;45325;-70
2021/10/22 02:24:21;;;;;;;;;8.50;8.50;;;;;21.75;46.22;101182.06;5080023;28;45551;-70
2021/10/22 02:26:46;;;;;;;;;7.25;7.25;;;;;21.74;45.97;101180.31;5080314;28;45262;-70
2021/10/22 02:29:13;;;;;;;;;9.75;9.75;;;;;21.72;46.15;101193.66;5079941;28;52311;-70
2021/10/22 02:31:38;;;;;;;;;9.00;9.00;;;;;21.72;46.37;101190.13;5063928;27;45363;-70
2021/10/22 02:34:04;;;;;;;;;6.00;5.00;;;;;21.71;45.86;101185.69;5059767;28;45277;-70
2021/10/22 02:36:29;;;;;;;;;7.25;6.00;;;;;21.69;45.84;101176.91;5067808;28;45341;-70
2021/10/22 02:38:55;;;;;;;;;6.00;6.00;;;;;21.73;46.07;101183.88;5073698;28;59500;-70
2021/10/22 02:41:20;;;;;;;;;8.50;8.50;;;;;21.72;45.94;101177.72;5072313;28;45795;-70
2021/10/22 02:43:47;;;;;;;;;6.00;5.75;;;;;21.74;45.93;101175.00;5080184;28;45651;-70
2021/10/22 02:46:13;;;;;;;;;9.00;9.00;;;;;21.73;45.98;101174.13;5076519;28;46041;-70
2021/10/22 02:48:38;;;;;;;;;7.00;7.00;;;;;21.75;45.58;101178.53;5061151;28;45473;-70
2021/10/22 02:51:04;;;;;;;;;9.50;8.00;;;;;21.73;45.77;101186.53;5080357;28;45705;-70
2021/10/22 02:53:29;;;;;;;;;10.25;8.00;;;;;21.73;45.99;101181.22;5079383;28;45424;-69
2021/10/22 02:55:54;;;;;;;;;7.25;7.25;;;;;21.70;45.96;101184.84;5096678;27;54833;-70
2021/10/22 02:58:20;;;;;;;;;7.00;7.00;;;;;21.69;45.63;101190.19;5096298;27;61250;-70
2021/10/22 03:00:45;;;;;;;;;6.25;6.25;;;;;21.68;45.54;101194.63;5059710;28;45352;-70
2021/10/22 03:03:11;;;;;;;;;6.25;5.50;;;;;21.66;45.58;101196.47;5075730;28;64626;-70
2021/10/22 03:05:36;;;;;;;;;5.75;5.75;;;;;21.65;45.48;101191.22;5070786;28;52375;-70
2021/10/22 03:08:02;;;;;;;;;3.50;3.00;;;;;21.65;45.67;101197.41;5096556;27;45812;-70
2021/10/22 03:10:27;;;;;;;;;5.75;5.00;;;;;21.64;45.60;101187.69;5096966;27;45282;-70
2021/10/22 03:12:52;;;;;;;;;8.00;6.00;;;;;21.64;45.91;101185.03;5096549;27;45421;-70
2021/10/22 03:15:18;;;;;;;;;5.50;5.00;;;;;21.64;45.56;101190.34;5096574;27;48141;-70
2021/10/22 03:17:43;;;;;;;;;7.25;6.50;;;;;21.64;45.83;101197.44;5096305;27;48948;-70
2021/10/22 03:20:09;;;;;;;;;6.50;6.50;;;;;21.62;46.02;101184.19;5076552;28;45729;-70
2021/10/22 03:22:35;;;;;;;;;8.25;6.50;;;;;21.65;45.89;101196.53;5075063;27;45730;-70
2021/10/22 03:25:01;;;;;;;;;8.00;6.50;;;;;21.65;45.53;101193.88;5062261;28;47058;-70
2021/10/22 03:27:27;;;;;;;;;5.00;5.00;;;;;21.63;45.86;101193.91;5062662;28;45293;-70
2021/10/22 03:29:53;;;;;;;;;6.75;6.75;;;;;21.65;45.55;101196.53;5062810;28;45400;-70
2021/10/22 03:32:18;;;;;;;;;5.00;5.00;;;;;21.67;45.76;101189.38;5079228;28;46672;-70
2021/10/22 03:34:43;;;;;;;;;5.00;5.00;;;;;21.67;45.65;101189.38;5058362;28;57558;-70
2021/10/22 03:37:09;;;;;;;;;6.50;6.50;;;;;21.68;45.47;101193.78;5075637;28;50232;-70
2021/10/22 03:39:34;;;;;;;;;3.75;2.50;;;;;21.68;45.52;101191.13;5079240;28;45324;-70
2021/10/22 03:42:00;;;;;;;;;6.00;5.00;;;;;21.67;45.30;101197.34;5078957;28;45501;-70
2021/10/22 03:44:25;;;;;;;;;6.50;6.00;;;;;21.67;45.53;101192.91;5062201;28;50813;-72
2021/10/22 03:46:50;;;;;;;;;5.25;4.25;;;;;21.68;45.26;101204.41;5079207;28;45381;-70
2021/10/22 03:49:16;;;;;;;;;8.25;5.25;;;;;21.67;45.28;101200.88;5080594;27;45149;-70
2021/10/22 03:51:42;;;;;;;;;7.00;5.00;;;;;21.67;45.19;101205.31;5080373;27;45498;-69
2021/10/22 03:54:07;;;;;;;;;6.75;4.75;;;;;21.67;45.49;101203.53;5079844;27;45314;-70
2021/10/22 03:56:33;;;;;;;;;5.50;5.50;;;;;21.67;45.44;101205.31;5061786;28;45201;-69
2021/10/22 03:58:58;;;;;;;;;6.75;5.75;;;;;21.65;45.19;101194.75;5096485;27;45259;-70
2021/10/22 04:01:24;;;;;;;;;8.00;6.25;;;;;21.65;45.23;101201.84;5061587;28;45447;-70
2021/10/22 04:03:49;;;;;;;;;4.00;4.00;;;;;21.66;45.45;101204.44;5078180;28;67579;-70
2021/10/22 04:06:14;;;;;;;;;4.75;4.75;;;;;21.67;45.70;101202.66;5078293;28;62509;-69
2021/10/22 04:08:40;;;;;;;;;7.25;7.25;;;;;21.66;45.32;101201.78;5079007;28;45271;-70
2021/10/22 04:11:06;;;;;;;;;6.00;5.75;;;;;21.67;45.52;101205.31;5061956;28;45398;-70
2021/10/22 04:13:31;;;;;;;;;4.75;4.75;;;;;21.67;45.48;101205.31;5061880;28;46315;-70
2021/10/22 04:15:56;;;;;;;;;5.00;5.00;;;;;21.68;45.54;101207.91;5078055;28;65124;-70
2021/10/22 04:18:22;;;;;;;;;4.75;4.75;;;;;21.69;45.73;101203.47;5045398;28;45507;-70
2021/10/22 04:20:47;;;;;;;;;5.25;5.25;;;;;21.70;45.57;101215.84;5061860;28;45344;-70
2021/10/22 04:23:13;;;;;;;;;6.25;6.00;;;;;21.68;45.32;101207.06;5095558;27;46657;-70
2021/10/22 04:25:38;;;;;;;;;7.00;6.25;;;;;21.69;45.46;101204.34;5095576;27;45487;-70
2021/10/22 04:28:04;;;;;;;;;2.75;1.50;;;;;21.70;45.63;101205.22;5095994;27;45808;-70
2021/10/22 04:30:29;;;;;;;;;5.25;4.00;;;;;21.72;45.55;101208.72;5095837;27;45413;-70
2021/10/22 04:32:55;;;;;;;;;6.00;4.50;;;;;21.65;45.18;101189.44;5078651;28;45345;-70
2021/10/22 04:35:20;;;;;;;;;7.00;5.00;;;;;21.73;45.24;101205.16;5061617;28;45209;-70
2021/10/22 04:40:33;;;;;;;;;6.25;5.00;;;;;21.71;44.83;101201.63;5083443;27;45202;-70
2021/10/22 04:43:06;;;;;;;;;4.00;4.00;;;;;21.71;45.44;101217.56;5068003;28;46165;-70
2021/10/22 04:45:33;;;;;;;;;4.50;4.50;;;;;21.71;45.43;101220.22;5065270;28;45237;-70
2021/10/22 04:47:59;;;;;;;;;6.25;5.00;;;;;21.73;45.44;101226.41;5082263;27;45279;-72
2021/10/22 04:50:24;;;;;;;;;4.75;4.75;;;;;21.72;45.59;101225.53;5061713;28;45438;-72
2021/10/22 04:52:55;;;;;;;;;2.50;2.50;;;;;21.75;45.18;101235.19;5070789;28;47163;-72
2021/10/22 04:55:22;;;;;;;;;5.00;5.00;;;;;21.75;44.97;101236.97;5077426;28;45254;-69
2021/10/22 04:57:47;;;;;;;;;6.25;4.50;;;;;21.72;45.66;101235.28;5074935;28;45236;-75
2021/10/22 05:00:13;;;;;;;;;6.00;5.00;;;;;21.75;45.87;101244.94;5081591;28;45622;-70
2021/10/22 05:02:39;;;;;;;;;4.00;3.75;;;;;21.74;45.67;101238.75;5081662;28;45347;-72
2021/10/22 05:05:07;;;;;;;;;6.00;4.50;;;;;21.72;45.74;101240.59;5061181;28;45228;-70
2021/10/22 05:07:32;;;;;;;;;5.25;5.00;;;;;21.75;45.90;101244.94;5078359;27;45354;-70
2021/10/22 05:09:58;;;;;;;;;5.50;4.25;;;;;21.75;46.22;101245.81;5098318;27;45283;-70
2021/10/22 05:12:24;;;;;;;;;7.50;6.50;;;;;21.74;46.91;101246.75;5065362;28;46592;-72
2021/10/22 05:14:50;;;;;;;;;5.00;5.00;;;;;21.74;47.52;101249.41;5081704;28;45404;-72
2021/10/22 05:17:15;;;;;;;;;7.50;5.00;;;;;21.76;47.90;101241.38;5047909;28;45260;-71
2021/10/22 05:19:41;;;;;;;;;4.75;4.75;;;;;21.76;48.56;101247.56;5098326;27;45528;-71
2021/10/22 05:22:06;;;;;;;;;4.00;3.25;;;;;21.76;48.10;101247.56;5098365;27;46508;-71
2021/10/22 05:24:32;;;;;;;;;6.75;4.50;;;;;21.78;49.01;101245.72;5097890;27;46517;-73
2021/10/22 05:26:57;;;;;;;;;6.25;5.50;;;;;21.80;49.10;101253.63;5081543;28;45266;-71
2021/10/22 05:29:22;;;;;;;;;6.00;4.25;;;;;21.80;49.05;101243.88;5063872;28;61264;-72
2021/10/22 05:31:48;;;;;;;;;5.25;5.25;;;;;21.78;48.90;101240.41;5080554;28;63059;-72
2021/10/22 05:34:16;;;;;;;;;5.75;5.00;;;;;21.82;49.09;101251.84;5060254;28;56308;-72
2021/10/22 05:36:41;;;;;;;;;6.50;4.25;;;;;21.82;49.50;101249.19;5070231;28;45443;-73
2021/10/22 05:39:07;;;;;;;;;9.00;6.50;;;;;21.81;49.51;101245.66;5076807;28;45342;-73
2021/10/22 05:41:32;;;;;;;;;6.50;4.00;;;;;21.82;49.53;101251.84;5090243;27;45382;-73
2021/10/22 05:43:58;;;;;;;;;6.25;4.75;;;;;21.82;49.31;101244.72;5097671;27;49294;-73
2021/10/22 05:46:25;;;;;;;;;6.25;4.00;;;;;21.83;48.81;101248.25;5080054;28;57850;-71
2021/10/22 05:48:51;;;;;;;;;5.00;5.00;;;;;21.84;48.98;101252.66;5064376;28;45445;-70
2021/10/22 05:51:17;;;;;;;;;4.25;4.25;;;;;21.82;48.76;101252.69;5097876;27;45290;-70
2021/10/22 05:53:42;;;;;;;;;5.25;5.25;;;;;21.79;48.12;101258.09;5080621;28;45353;-70
2021/10/22 05:56:08;;;;;;;;;4.50;4.00;;;;;21.75;49.19;101253.78;5082549;28;45280;-74
2021/10/22 05:58:52;;;;;;;;;3.75;3.00;;;;;21.76;48.76;101259.97;5097871;27;45212;-72
2021/10/22 06:01:17;;;;;;;;;3.75;3.00;;;;;21.71;49.39;101250.31;5115025;27;45572;-70
2021/10/22 06:03:46;;;;;;;;;4.00;4.00;;;;;21.64;49.80;101247.91;5076888;28;58565;-71
2021/10/22 06:06:12;;;;;;;;;4.50;3.00;;;;;21.71;49.79;101255.66;5076254;28;45505;-71
2021/10/22 06:08:38;;;;;;;;;4.25;3.75;;;;;21.68;49.50;101247.78;5063859;28;45622;-70
2021/10/22 06:11:11;;;;;;;;;5.00;5.00;;;;;21.71;49.83;101260.09;5063635;28;45574;-70
2021/10/22 06:13:42;;;;;;;;;5.50;4.00;;;;;21.69;48.96;101260.13;5064651;27;45465;-70
2021/10/22 06:16:09;;;;;;;;;4.00;3.75;;;;;21.71;48.78;101266.28;5064665;28;45316;-70
2021/10/22 06:18:35;;;;;;;;;5.00;3.00;;;;;21.68;49.01;101271.69;5080219;28;45272;-71
2021/10/22 06:21:07;;;;;;;;;4.25;2.25;;;;;21.69;47.92;101277.88;5060020;28;45919;-70
2021/10/22 06:26:16;;;;;;;;;4.25;4.25;;;;;21.63;48.41;101273.63;5095431;27;45279;-71
2021/10/22 06:28:41;;;;;;;;;5.00;4.50;;;;;21.61;47.75;101269.22;5097387;27;45289;-72
2021/10/22 06:31:07;;;;;;;;;2.50;2.50;;;;;21.59;48.00;101271.06;5097787;27;45325;-70
2021/10/22 06:33:32;;;;;;;;;4.25;2.50;;;;;21.58;47.63;101275.50;5080228;28;45266;-71
2021/10/22 06:35:58;;;;;;;;;3.25;3.25;;;;;21.55;47.52;101272.97;5081730;28;45604;-70
2021/10/22 06:38:24;;;;;;;;;3.25;3.00;;;;;21.53;47.69;101289.81;5080037;28;45266;-71
2021/10/22 06:40:53;;;;;;;;;5.00;3.50;;;;;21.49;47.23;101293.50;5063100;28;45289;-71
2021/10/22 06:43:20;;;;;;;;;3.50;3.00;;;;;21.48;47.29;101302.38;5080239;28;45488;-70
2021/10/22 06:45:46;;;;;;;;;4.75;4.75;;;;;21.45;47.54;101306.84;5063738;28;45491;-70
2021/10/22 06:48:12;;;;;;;;;4.25;4.00;;;;;21.42;47.80;101306.94;5072269;28;45503;-69
2021/10/22 06:50:37;;;;;;;;;4.00;3.25;;;;;21.45;46.53;101312.13;5072979;28;47423;-70
2021/10/22 06:53:02;;;;;;;;;3.25;2.00;;;;;21.43;44.63;101319.28;5066457;27;52867;-69
2021/10/22 06:55:28;;;;;;;;;2.25;2.25;;;;;21.45;44.47;101328.06;5078702;28;51306;-70
2021/10/22 06:57:53;;;;;;;;;5.75;2.50;;;;;21.45;43.56;101330.72;5078397;28;45560;-71
2021/10/22 07:00:19;;;;;;;;;3.50;3.50;;;;;21.48;44.41;101331.59;5071964;28;47273;-70
2021/10/22 07:02:51;;;;;;;;;4.00;3.00;;;;;21.53;43.28;101341.16;5094873;27;45242;-70
2021/10/22 07:07:14;;;;;;;;;4.00;4.00;;;;;21.57;42.80;101329.56;5066973;28;45429;-70
2021/10/22 07:08:03;;;;;;;;;2.25;1.75;;;;;21.64;42.21;101344.41;5067344;28;45449;-70
2021/10/22 07:10:29;;;;;;;;;3.00;3.00;;;;;21.66;41.87;101339.94;5095918;27;48216;-71
2021/10/22 07:12:55;;;;;;;;;3.75;3.75;;;;;21.69;41.30;101339.84;5076047;28;45282;-71
2021/10/22 07:15:21;;;;;;;;;4.00;4.00;;;;;21.71;40.90;101340.66;5051610;28;45450;-70
2021/10/22 07:17:46;;;;;;;;;5.50;5.50;;;;;21.73;40.60;101345.97;5050945;28;45331;-70
2021/10/22 07:20:12;;;;;;;;;9.75;7.00;;;;;21.73;40.19;101343.31;5059631;28;45466;-70
2021/10/22 07:22:47;;;;;;;;;4.25;3.25;;;;;21.73;39.63;101343.31;5061694;28;45362;-71
2021/10/22 07:25:13;;;;;;;;;5.00;4.00;;;;;21.70;40.29;101338.91;5078820;27;45437;-70
2021/10/22 07:27:39;;;;;;;;;5.00;5.00;;;;;21.72;40.57;101349.53;5078691;28;45481;-70
2021/10/22 07:30:05;;;;;;;;;4.00;4.00;;;;;21.70;40.69;101346.03;5095230;27;48525;-70
2021/10/22 07:32:30;;;;;;;;;4.00;3.75;;;;;21.69;41.31;101347.81;5078464;28;45464;-72
2021/10/22 07:34:55;;;;;;;;;6.25;5.00;;;;;21.70;41.25;101354.84;5079738;28;45755;-72
2021/10/22 07:37:21;;;;;;;;;3.50;3.50;;;;;21.69;40.74;101360.22;5079722;28;45198;-72
2021/10/22 07:39:46;;;;;;;;;3.50;3.50;;;;;21.68;41.23;101371.75;5062308;28;47576;-72
2021/10/22 07:42:12;;;;;;;;;4.00;4.00;;;;;21.65;41.46;101364.75;5079635;27;46983;-70
2021/10/22 07:44:37;;;;;;;;;5.50;3.50;;;;;21.65;41.66;101366.53;5106550;27;51980;-70
2021/10/22 07:47:03;;;;;;;;;4.75;4.50;;;;;21.62;41.94;101367.47;5075398;28;55663;-70
2021/10/22 07:49:29;;;;;;;;;5.00;5.00;;;;;21.63;41.79;101357.72;5095750;27;48193;-71
2021/10/22 07:51:54;;;;;;;;;4.50;3.00;;;;;21.66;42.29;101368.28;5078639;28;45446;-71
2021/10/22 07:54:20;;;;;;;;;7.00;5.00;;;;;21.67;41.98;101372.69;5077673;28;45244;-71
2021/10/22 07:56:45;;;;;;;;;4.00;4.00;;;;;21.65;42.07;101366.53;5078253;28;45615;-71
2021/10/22 07:59:11;;;;;;;;;3.75;3.75;;;;;21.65;42.13;101367.41;5061300;28;45296;-70
2021/10/22 08:01:37;;;;;;;;;5.00;3.25;;;;;21.68;42.61;101367.31;5078279;28;45715;-70
2021/10/22 08:04:04;;;;;;;;;3.00;3.00;;;;;21.68;42.53;101372.63;5063655;28;45393;-70
2021/10/22 08:06:30;;;;;;;;;3.00;3.00;;;;;21.71;42.98;101371.66;5078127;28;46257;-70
2021/10/22 08:08:56;;;;;;;;;3.00;3.00;;;;;21.69;42.80;101362.88;5108851;27;45358;-70
2021/10/22 08:11:22;;;;;;;;;1.00;1.00;;;;;21.73;42.51;101375.19;5082905;28;45442;-70
2021/10/22 08:13:47;;;;;;;;;5.00;4.00;;;;;21.76;43.01;101383.06;5083176;28;45536;-70
2021/10/22 08:16:13;;;;;;;;;3.00;3.00;;;;;21.77;42.68;101394.56;5082404;28;50008;-71
2021/10/22 08:18:38;;;;;;;;;4.75;4.75;;;;;21.78;43.27;101389.19;5110314;27;45245;-71
2021/10/22 08:23:49;;;;;;;;;7.75;6.75;;;;;21.84;44.35;101394.34;5070483;27;45391;-71
2021/10/22 08:26:16;;;;;;;;;8.25;6.00;;;;;21.90;43.95;101404.84;5078286;28;57326;-71
2021/10/22 08:28:42;;;;;;;;;4.50;4.00;;;;;21.94;44.02;101401.16;5070689;27;46417;-70
2021/10/22 08:31:07;;;;;;;;;5.00;4.25;;;;;21.98;44.11;101407.28;5087082;27;45340;-70
2021/10/22 08:33:33;;;;;;;;;5.25;4.00;;;;;22.01;43.65;101410.72;5080959;28;45283;-70
2021/10/22 08:35:59;;;;;;;;;3.00;2.00;;;;;22.02;43.76;101415.13;5083027;28;45398;-70
2021/10/22 08:38:25;;;;;;;;;3.00;3.00;;;;;22.02;43.98;101417.78;5064374;28;47332;-70
2021/10/22 08:40:53;;;;;;;;;5.00;5.00;;;;;22.03;44.00;101413.31;5081253;28;45329;-70
2021/10/22 08:43:19;;;;;;;;;3.00;3.00;;;;;22.03;43.90;101421.31;5081653;28;45263;-70
2021/10/22 08:45:45;;;;;;;;;6.00;5.75;;;;;22.04;44.12;101419.50;5082278;28;45515;-70
2021/10/22 08:48:11;;;;;;;;;5.75;4.00;;;;;22.06;43.57;101425.66;5082279;28;45326;-68
2021/10/22 08:50:37;;;;;;;;;3.25;3.00;;;;;22.05;43.93;101422.13;5084656;27;45499;-71
2021/10/22 08:53:02;;;;;;;;;6.25;5.00;;;;;22.07;44.38;101422.13;5115273;27;45776;-68
2021/10/22 08:55:27;;;;;;;;;4.00;4.00;;;;;;;;5109297;27;45531;-70
2021/10/22 08:57:53;;;;;;;;;4.25;3.00;;;;;22.11;44.55;101437.09;5077365;28;45992;-69
2021/10/22 09:00:20;;;;;;;;;4.25;3.50;;;;;22.11;44.90;101429.09;5063260;28;46100;-70
2021/10/22 09:02:47;;;;;;;;;4.00;3.25;;;;;22.12;44.22;101430.84;5064072;28;45280;-70
2021/10/22 09:05:13;;;;;;;;;5.50;3.75;;;;;22.12;44.32;101437.03;5079579;28;45283;-70
2021/10/22 09:07:38;;;;;;;;;3.25;2.50;;;;;22.09;43.94;101436.25;5080531;28;47004;-70
2021/10/22 09:10:07;;;;;;;;;5.00;4.00;;;;;22.02;43.54;101435.50;5081884;28;45274;-70
2021/10/22 09:12:42;;;;;;;;;3.25;3.25;;;;;21.99;44.16;101435.59;5080911;28;45442;-72
2021/10/22 09:15:08;;;;;;;;;6.00;5.50;;;;;21.99;44.49;101439.13;5080423;28;45470;-71
2021/10/22 09:17:37;;;;;;;;;5.25;4.50;;;;;22.01;44.84;101439.97;5062205;28;48141;-69
2021/10/22 09:20:04;;;;;;;;;4.00;4.00;;;;;22.03;44.56;101445.22;5098179;27;45529;-70
2021/10/22 09:22:32;;;;;;;;;4.00;4.00;;;;;22.02;44.80;101441.69;5077120;28;45620;-70
2021/10/22 09:25:00;;;;;;;;;3.00;3.00;;;;;22.06;45.08;101452.25;5098735;27;45392;-70
2021/10/22 09:27:46;;;;;;;;;7.25;4.25;;;;;22.06;44.96;101449.59;5076680;28;45500;-69
2021/10/22 09:30:31;;;;;;;;;2.75;2.75;;;;;22.08;45.01;101455.78;5086035;27;45475;-69
2021/10/22 09:33:02;;;;;;;;;5.00;4.00;;;;;22.09;45.28;101457.53;5077544;28;45245;-71
2021/10/22 09:35:38;;;;;;;;;4.50;3.00;;;;;22.11;45.04;101456.56;5055079;28;45501;-71
2021/10/22 09:38:23;;;;;;;;;4.50;3.75;;;;;22.15;44.84;101460.00;5078582;28;48237;-70
2021/10/22 09:40:50;;;;;;;;;4.00;3.00;;;;;22.16;45.65;101459.97;5092662;27;45813;-70
2021/10/22 09:43:19;;;;;;;;;2.00;2.00;;;;;22.19;45.22;101467.88;5069018;28;45340;-70
2021/10/22 09:45:48;;;;;;;;;5.00;2.50;;;;;22.21;45.48;101463.38;5080440;28;45252;-70
2021/10/22 09:48:30;;;;;;;;;5.75;4.00;;;;;22.24;44.97;101473.03;5060535;28;48178;-71
2021/10/22 09:51:16;;;;;;;;;6.50;4.00;;;;;22.25;45.09;101464.19;5065360;28;45750;-70
2021/10/22 09:53:44;;;;;;;;;4.00;3.25;;;;;22.27;45.77;101467.66;5055430;28;45398;-70
2021/10/22 09:56:10;;;;;;;;;5.75;3.50;;;;;22.29;46.02;101472.00;5082172;28;45318;-71
2021/10/22 09:58:35;;;;;;;;;2.75;2.00;;;;;22.31;45.68;101471.97;5080490;27;54490;-70
2021/10/22 10:01:11;;;;;;;;;3.25;3.25;;;;;22.31;45.77;101469.31;5071685;28;45302;-69
2021/10/22 10:03:40;;;;;;;;;3.25;2.75;;;;;22.31;45.40;101471.09;5067037;28;45575;-70
2021/10/22 10:06:07;;;;;;;;;3.00;2.00;;;;;22.33;45.44;101472.81;5081927;27;45331;-70
2021/10/22 10:08:34;;;;;;;;;4.25;3.25;;;;;22.34;45.99;101479.00;5079096;27;45569;-70
2021/10/22 10:11:00;;;;;;;;;3.00;3.00;;;;;22.36;45.52;101478.03;5081313;28;45406;-69
2021/10/22 10:13:25;;;;;;;;;5.75;4.75;;;;;22.37;45.01;101479.78;5086708;27;45508;-69
2021/10/22 10:15:51;;;;;;;;;4.00;4.00;;;;;22.35;45.12;101476.28;5075616;28;45807;-70
2021/10/22 10:18:18;;;;;;;;;4.25;3.00;;;;;22.35;45.16;101476.28;5095615;27;59637;-70
2021/10/22 10:20:43;;;;;;;;;6.00;3.75;;;;;22.34;45.50;101479.88;5079107;28;45390;-70
2021/10/22 10:23:09;;;;;;;;;3.00;3.00;;;;;22.32;45.18;101476.38;5097489;27;45427;-71
2021/10/22 10:25:34;;;;;;;;;3.00;3.00;;;;;22.36;44.89;101488.69;5097249;27;45512;-69
2021/10/22 10:28:00;;;;;;;;;4.00;3.00;;;;;22.37;44.56;101482.44;5080421;28;47147;-70
2021/10/22 10:30:36;;;;;;;;;3.25;3.00;;;;;22.36;45.21;101488.69;5077926;28;45313;-69
2021/10/22 10:33:04;;;;;;;;;2.75;2.75;;;;;22.38;45.45;101496.59;5096366;27;45385;-70
2021/10/22 10:35:37;;;;;;;;;2.00;2.00;;;;;22.39;45.94;101490.38;5062435;28;45313;-70
2021/10/22 10:38:02;;;;;;;;;5.00;3.00;;;;;22.40;45.98;101495.63;5060809;28;47348;-70
2021/10/22 10:40:31;;;;;;;;;3.00;3.00;;;;;22.38;45.74;101494.81;5079340;28;45389;-70
2021/10/22 10:43:03;;;;;;;;;6.25;3.25;;;;;22.41;46.15;101496.50;5096904;27;45335;-70
2021/10/22 10:45:28;;;;;;;;;5.25;3.25;;;;;22.41;45.36;101489.41;5079574;28;45351;-70
2021/10/22 10:47:57;;;;;;;;;4.00;2.50;;;;;22.40;45.55;101495.63;5079893;28;46783;-70
2021/10/22 10:50:42;;;;;;;;;2.50;2.50;;;;;22.41;45.34;101484.09;5080019;28;45292;-69
2021/10/22 10:53:14;;;;;;;;;4.00;2.00;;;;;22.38;44.93;101488.63;5079601;28;45438;-75
2021/10/22 10:55:43;;;;;;;;;1.75;1.75;;;;;22.32;43.79;101494.97;5086718;27;45800;-75
2021/10/22 10:58:09;;;;;;;;;3.50;3.00;;;;;22.24;43.74;101489.91;5091643;27;47620;-75
2021/10/22 11:00:38;;;;;;;;;2.00;2.00;;;;;22.20;42.57;101487.34;5079694;28;45693;-72
2021/10/22 11:03:05;;;;;;;;;5.50;4.75;;;;;22.18;45.95;101489.19;5082442;28;45342;-76
2021/10/22 11:05:49;;;;;;;;;3.00;3.00;;;;;22.17;43.72;101490.09;5076539;28;45534;-75
2021/10/22 11:08:22;;;;;;;;;2.00;2.00;;;;;22.07;43.85;101485.91;5072111;28;47599;-76
2021/10/22 11:11:11;;;;;;;;;2.00;2.00;;;;;21.97;42.41;101486.13;5055758;28;45491;-76
2021/10/22 11:13:45;;;;;;;;;1.25;1.25;;;;;21.84;40.77;101489.16;5075458;28;45706;-76
2021/10/22 11:16:24;;;;;;;;;5.75;1.75;;;;;21.65;40.32;101489.63;5078349;28;45313;-75
2021/10/22 11:18:53;;;;;;;;;3.00;3.00;;;;;21.51;40.67;101477.56;5079246;28;47005;-75
2021/10/22 11:21:23;;;;;;;;;2.00;2.00;;;;;21.63;40.54;101491.44;5080622;27;45404;-74
2021/10/22 11:23:49;;;;;;;;;1.50;1.50;;;;;21.64;40.11;101490.53;5080609;27;45284;-75
2021/10/22 11:26:19;;;;;;;;;2.00;2.00;;;;;21.55;39.17;101482.78;5096469;27;45238;-76
2021/10/22 11:28:52;;;;;;;;;2.25;2.25;;;;;21.52;39.66;101481.97;5059464;27;47719;-75
2021/10/22 11:31:47;;;;;;;;;2.00;1.25;;;;;21.38;38.63;101471.69;5057280;27;45392;-75